createdAt,value
2019-04-25T00:02:16.625Z,15.01
2019-04-25T00:04:45.645Z,15.02
2019-04-25T00:07:14.864Z,15.08
2019-04-25T00:09:45.546Z,14.96
2019-04-25T00:12:14.687Z,15.08
2019-04-25T00:14:43.777Z,15.10
2019-04-25T00:17:12.862Z,15.11
2019-04-25T00:19:42.531Z,15.13
2019-04-25T00:22:22.865Z,15.19
2019-04-25T00:24:53.358Z,15.17
2019-04-25T00:27:23.745Z,15.20
2019-04-25T00:29:52.967Z,15.24
2019-04-25T00:32:22.329Z,15.30
2019-04-25T00:34:51.846Z,15.29
2019-04-25T00:37:22.568Z,15.29
2019-04-25T00:39:51.856Z,15.29
2019-04-25T00:42:21.206Z,15.33
2019-04-25T00:44:51.539Z,15.34
2019-04-25T00:47:21.650Z,15.36
2019-04-25T00:49:52.107Z,15.36
2019-04-25T00:52:22.803Z,15.30
2019-04-25T00:54:52.691Z,15.30
2019-04-25T00:57:22.605Z,15.29
2019-04-25T00:59:54.093Z,15.22
2019-04-25T01:02:33.025Z,15.24
2019-04-25T01:05:02.094Z,15.17
2019-04-25T01:07:32.395Z,15.17
2019-04-25T01:10:02.437Z,15.11
2019-04-25T01:12:32.245Z,15.05
2019-04-25T01:15:01.713Z,15.05
2019-04-25T01:17:31.460Z,14.99
2019-04-25T01:20:00.602Z,14.94
2019-04-25T01:22:29.646Z,14.97
2019-04-25T01:24:58.691Z,15.00
2019-04-25T01:27:27.829Z,14.98
2019-04-25T01:29:57.066Z,14.95
2019-04-25T01:32:33.602Z,14.95
2019-04-25T01:35:23.779Z,14.92
2019-04-25T01:37:55.279Z,14.90
2019-04-25T01:40:33.410Z,14.87
2019-04-25T01:43:14.270Z,14.91
2019-04-25T01:45:44.178Z,14.94
2019-04-25T01:48:13.735Z,14.90
2019-04-25T01:50:43.764Z,14.95
2019-04-25T01:53:14.479Z,14.94
2019-04-25T01:55:53.304Z,14.90
2019-04-25T01:58:14.647Z,14.81
2019-04-25T02:00:45.205Z,14.84
2019-04-25T02:03:14.174Z,14.83
2019-04-25T02:05:43.846Z,14.79
2019-04-25T02:08:14.317Z,14.72
2019-04-25T02:10:44.885Z,14.65
2019-04-25T02:13:24.546Z,14.61
2019-04-25T02:15:54.871Z,14.58
2019-04-25T02:18:24.066Z,14.54
2019-04-25T02:20:56.580Z,14.45
2019-04-25T02:23:24.055Z,14.39
2019-04-25T02:26:06.739Z,14.33
2019-04-25T02:28:24.103Z,14.34
2019-04-25T02:30:57.316Z,14.20
2019-04-25T02:33:24.323Z,14.20
2019-04-25T02:35:54.346Z,14.10
2019-04-25T02:38:24.447Z,14.14
2019-04-25T02:40:56.289Z,14.05
2019-04-25T02:43:24.466Z,14.02
2019-04-25T02:46:02.212Z,14.07
2019-04-25T02:48:51.546Z,14.01
2019-04-25T02:51:24.359Z,13.95
2019-04-25T02:53:55.911Z,13.90
2019-04-25T02:56:31.191Z,13.97
2019-04-25T02:58:56.616Z,13.94
2019-04-25T03:01:26.397Z,13.91
2019-04-25T03:03:57.461Z,13.96
2019-04-25T03:06:26.626Z,13.94
2019-04-25T03:08:57.819Z,13.96
2019-04-25T03:11:26.525Z,13.97
2019-04-25T03:13:55.702Z,13.92
2019-04-25T03:16:25.229Z,13.95
2019-04-25T03:18:55.856Z,13.91
2019-04-25T03:21:29.505Z,13.93
2019-04-25T03:23:59.555Z,13.87
2019-04-25T03:26:39.732Z,13.84
2019-04-25T03:28:59.945Z,13.82
2019-04-25T03:31:28.850Z,13.84
2019-04-25T03:33:57.888Z,13.80
2019-04-25T03:36:26.827Z,13.82
2019-04-25T03:38:55.704Z,13.90
2019-04-25T03:41:24.680Z,13.88
2019-04-25T03:43:54.185Z,13.85
2019-04-25T03:46:23.442Z,13.83
2019-04-25T03:48:53.874Z,13.83
2019-04-25T03:51:24.016Z,13.87
2019-04-25T03:53:53.633Z,13.90
2019-04-25T03:56:22.724Z,13.87
2019-04-25T03:58:51.804Z,13.92
2019-04-25T04:01:20.807Z,13.97
2019-04-25T04:03:49.685Z,13.91
2019-04-25T04:06:18.685Z,13.92
2019-04-25T04:08:47.605Z,14.02
2019-04-25T04:11:16.485Z,14.02
2019-04-25T04:13:45.425Z,14.07
2019-04-25T04:16:15.965Z,14.12
2019-04-25T04:18:46.725Z,14.13
2019-04-25T04:21:20.102Z,14.12
2019-04-25T04:23:54.193Z,14.18
2019-04-25T04:26:24.325Z,14.19
2019-04-25T04:28:53.404Z,14.22
2019-04-25T04:31:23.562Z,14.30
2019-04-25T04:33:53.244Z,14.36
2019-04-25T04:36:23.702Z,14.37
2019-04-25T04:38:54.352Z,14.45
2019-04-25T04:41:23.955Z,14.48
2019-04-25T04:43:54.140Z,14.43
2019-04-25T04:46:24.035Z,14.53
2019-04-25T04:48:54.104Z,14.59
2019-04-25T04:51:23.945Z,14.60
2019-04-25T04:53:53.730Z,14.70
2019-04-25T04:56:23.964Z,14.66
2019-04-25T04:58:53.923Z,14.72
2019-04-25T05:01:24.863Z,14.71
2019-04-25T05:03:58.205Z,14.74
2019-04-25T05:06:31.907Z,14.82
2019-04-25T05:09:03.350Z,14.86
2019-04-25T05:11:33.526Z,14.84
2019-04-25T05:14:04.007Z,14.88
2019-04-25T05:16:33.244Z,14.91
2019-04-25T05:19:03.697Z,15.04
2019-04-25T05:21:33.694Z,14.99
2019-04-25T05:24:04.109Z,15.03
2019-04-25T05:26:34.125Z,15.11
2019-04-25T05:29:03.624Z,15.10
2019-04-25T05:31:46.308Z,15.10
2019-04-25T05:34:16.875Z,15.18
2019-04-25T05:36:46.006Z,15.24
2019-04-25T05:39:16.715Z,15.37
2019-04-25T05:41:54.010Z,15.42
2019-04-25T05:44:26.388Z,15.51
2019-04-25T05:46:54.115Z,15.62
2019-04-25T05:49:24.331Z,15.55
2019-04-25T05:51:53.943Z,15.47
2019-04-25T05:54:24.775Z,15.54
2019-04-25T05:56:54.488Z,15.61
2019-04-25T05:59:25.531Z,15.67
2019-04-25T06:01:54.166Z,15.72
2019-04-25T06:04:24.632Z,15.80
2019-04-25T06:06:55.174Z,15.81
2019-04-25T06:09:26.407Z,15.81
2019-04-25T06:11:57.425Z,15.98
2019-04-25T06:14:26.367Z,15.99
2019-04-25T06:16:56.972Z,15.94
2019-04-25T06:19:39.345Z,16.18
2019-04-25T06:22:10.114Z,16.39
2019-04-25T06:24:40.626Z,16.53
2019-04-25T06:27:17.146Z,16.50
2019-04-25T06:29:57.611Z,16.51
2019-04-25T06:32:18.305Z,16.47
2019-04-25T06:34:47.275Z,16.42
2019-04-25T06:37:16.289Z,16.53
2019-04-25T06:39:45.245Z,16.66
2019-04-25T06:42:14.266Z,16.63
2019-04-25T06:44:47.894Z,16.69
2019-04-25T06:47:24.793Z,16.86
2019-04-25T06:49:54.737Z,17.05
2019-04-25T06:52:28.234Z,17.27
2019-04-25T06:54:55.029Z,17.38
2019-04-25T06:57:26.644Z,17.49
2019-04-25T06:59:54.621Z,17.40
2019-04-25T07:02:25.409Z,17.50
2019-04-25T07:04:54.146Z,17.67
2019-04-25T07:07:24.498Z,17.74
2019-04-25T07:09:53.720Z,17.95
2019-04-25T07:12:26.574Z,17.97
2019-04-25T07:14:53.905Z,18.13
2019-04-25T07:17:24.203Z,18.31
2019-04-25T07:19:54.133Z,18.40
2019-04-25T07:22:23.976Z,18.36
2019-04-25T07:24:54.040Z,18.53
2019-04-25T07:27:40.928Z,18.54
2019-04-25T07:30:40.099Z,18.55
2019-04-25T07:33:05.432Z,18.57
2019-04-25T07:35:34.685Z,18.74
2019-04-25T07:38:04.632Z,18.90
2019-04-25T07:40:34.759Z,19.05
2019-04-25T07:43:04.862Z,19.19
2019-04-25T07:45:36.156Z,19.30
2019-04-25T07:48:05.412Z,19.43
2019-04-25T07:50:35.407Z,19.49
2019-04-25T07:53:05.717Z,19.65
2019-04-25T07:55:36.353Z,19.92
2019-04-25T07:58:05.974Z,19.88
2019-04-25T08:00:36.333Z,19.64
2019-04-25T08:03:05.553Z,19.76
2019-04-25T08:05:35.685Z,20.06
2019-04-25T08:08:05.391Z,20.08
2019-04-25T08:10:38.097Z,20.17
2019-04-25T08:13:07.152Z,20.41
2019-04-25T08:15:53.863Z,20.59
2019-04-25T08:18:25.246Z,20.23
2019-04-25T08:20:53.757Z,20.41
2019-04-25T08:23:23.852Z,20.30
2019-04-25T08:25:54.384Z,20.63
2019-04-25T08:28:23.752Z,20.89
2019-04-25T08:30:54.861Z,20.85
2019-04-25T08:33:23.796Z,21.16
2019-04-25T08:36:04.273Z,21.25
2019-04-25T08:38:23.888Z,21.29
2019-04-25T08:40:54.326Z,21.10
2019-04-25T08:43:24.356Z,21.48
2019-04-25T08:45:54.424Z,21.88
2019-04-25T08:48:25.071Z,21.91
2019-04-25T08:50:58.731Z,21.88
2019-04-25T08:53:29.171Z,22.16
2019-04-25T08:56:05.518Z,22.22
2019-04-25T08:58:36.556Z,22.18
2019-04-25T09:01:17.252Z,22.17
2019-04-25T09:03:56.832Z,22.24
2019-04-25T09:06:25.894Z,22.49
2019-04-25T09:08:54.852Z,22.49
2019-04-25T09:11:24.495Z,22.68
2019-04-25T09:13:53.848Z,22.97
2019-04-25T09:16:23.923Z,22.99
2019-04-25T09:18:53.975Z,23.23
2019-04-25T09:21:23.793Z,23.39
2019-04-25T09:23:53.533Z,23.59
2019-04-25T09:26:24.124Z,23.92
2019-04-25T09:28:53.719Z,24.38
2019-04-25T09:31:23.638Z,24.70
2019-04-25T09:33:54.290Z,24.64
2019-04-25T09:36:24.087Z,24.26
2019-04-25T09:38:54.693Z,23.91
2019-04-25T09:41:23.760Z,23.78
2019-04-25T09:43:54.947Z,23.19
2019-04-25T09:46:25.662Z,22.96
2019-04-25T09:48:58.941Z,23.14
2019-04-25T09:51:33.608Z,23.58
2019-04-25T09:54:20.561Z,24.41
2019-04-25T09:56:51.053Z,25.12
2019-04-25T09:59:28.083Z,25.72
2019-04-25T10:01:52.401Z,25.52
2019-04-25T10:04:22.973Z,25.01
2019-04-25T10:06:53.492Z,24.64
2019-04-25T10:09:23.811Z,24.82
2019-04-25T10:11:54.616Z,24.51
2019-04-25T10:14:26.691Z,24.37
2019-04-25T10:16:55.773Z,24.40
2019-04-25T10:19:24.661Z,24.54
2019-04-25T10:21:55.236Z,24.22
2019-04-25T10:24:24.312Z,23.85
2019-04-25T10:26:54.710Z,24.09
2019-04-25T10:29:23.871Z,24.56
2019-04-25T10:31:55.459Z,24.13
2019-04-25T10:34:24.184Z,24.07
2019-04-25T10:36:53.342Z,23.98
2019-04-25T10:39:22.879Z,23.84
2019-04-25T10:41:51.881Z,24.63
2019-04-25T10:44:20.941Z,24.80
2019-04-25T10:46:49.972Z,24.99
2019-04-25T10:49:19.001Z,25.74
2019-04-25T10:51:48.048Z,26.79
2019-04-25T10:54:17.143Z,26.60
2019-04-25T10:56:47.137Z,26.68
2019-04-25T10:59:16.701Z,26.38
2019-04-25T11:01:46.365Z,26.49
2019-04-25T11:04:17.692Z,26.46
2019-04-25T11:06:47.182Z,26.94
2019-04-25T11:09:20.872Z,27.40
2019-04-25T11:11:50.403Z,26.53
2019-04-25T11:14:19.564Z,26.51
2019-04-25T11:16:48.792Z,26.20
2019-04-25T11:19:17.700Z,25.60
2019-04-25T11:21:47.564Z,25.26
2019-04-25T11:24:16.655Z,25.35
2019-04-25T11:26:49.928Z,26.20
2019-04-25T11:29:17.992Z,27.44
2019-04-25T11:31:48.962Z,27.69
2019-04-25T11:34:18.350Z,27.38
2019-04-25T11:36:48.422Z,27.97
2019-04-25T11:39:28.310Z,27.89
2019-04-25T11:41:57.470Z,28.07
2019-04-25T11:44:26.423Z,27.65
2019-04-25T11:46:55.702Z,27.33
2019-04-25T11:49:24.608Z,27.43
2019-04-25T11:51:54.474Z,27.36
2019-04-25T11:54:24.265Z,28.05
2019-04-25T11:56:54.743Z,28.05
2019-04-25T11:59:24.350Z,28.17
2019-04-25T12:01:54.801Z,28.41
2019-04-25T12:04:24.034Z,28.29
2019-04-25T12:06:53.231Z,28.51
2019-04-25T12:09:24.099Z,28.41
2019-04-25T12:11:54.454Z,27.85
2019-04-25T12:14:25.196Z,27.80
2019-04-25T12:16:56.099Z,28.68
2019-04-25T12:19:34.487Z,28.55
2019-04-25T12:21:56.724Z,29.08
2019-04-25T12:24:26.351Z,29.08
2019-04-25T12:26:56.022Z,28.25
2019-04-25T12:29:24.999Z,27.86
2019-04-25T12:31:54.904Z,27.76
2019-04-25T12:34:24.329Z,28.18
2019-04-25T12:36:54.468Z,29.41
2019-04-25T12:39:24.300Z,29.24
2019-04-25T12:41:54.470Z,28.59
2019-04-25T12:44:43.452Z,29.16
2019-04-25T12:47:14.146Z,29.70
2019-04-25T12:49:43.776Z,28.47
2019-04-25T12:52:13.069Z,28.28
2019-04-25T12:54:42.031Z,28.50
2019-04-25T12:57:14.180Z,29.54
2019-04-25T12:59:45.013Z,30.32
2019-04-25T13:02:14.222Z,29.29
2019-04-25T13:04:44.284Z,28.76
2019-04-25T13:07:13.772Z,29.10
2019-04-25T13:09:42.833Z,29.62
2019-04-25T13:12:14.618Z,29.17
2019-04-25T13:14:42.581Z,29.21
2019-04-25T13:17:11.590Z,28.98
2019-04-25T13:19:40.952Z,28.74
2019-04-25T13:22:10.006Z,28.72
2019-04-25T13:24:39.052Z,29.50
2019-04-25T13:27:25.020Z,30.60
2019-04-25T13:30:07.943Z,31.20
2019-04-25T13:32:53.580Z,30.52
2019-04-25T13:35:26.701Z,30.04
2019-04-25T13:37:55.701Z,29.79
2019-04-25T13:40:24.822Z,29.13
2019-04-25T13:42:53.863Z,29.17
2019-04-25T13:45:23.582Z,29.86
2019-04-25T13:47:52.782Z,29.48
2019-04-25T13:50:23.946Z,28.95
2019-04-25T13:52:53.395Z,28.88
2019-04-25T13:55:23.987Z,29.24
2019-04-25T13:57:54.800Z,28.96
2019-04-25T14:00:25.137Z,28.58
2019-04-25T14:02:55.306Z,28.89
2019-04-25T14:05:25.700Z,28.90
2019-04-25T14:07:55.101Z,29.49
2019-04-25T14:10:25.213Z,29.90
2019-04-25T14:12:54.902Z,29.88
2019-04-25T14:15:25.371Z,29.25
2019-04-25T14:18:04.982Z,28.73
2019-04-25T14:20:44.901Z,29.27
2019-04-25T14:23:15.092Z,30.22
2019-04-25T14:25:44.334Z,30.46
2019-04-25T14:28:14.142Z,29.51
2019-04-25T14:30:43.588Z,29.40
2019-04-25T14:33:13.589Z,29.86
2019-04-25T14:35:42.703Z,29.19
2019-04-25T14:38:11.574Z,28.79
2019-04-25T14:40:42.261Z,28.42
2019-04-25T14:43:11.185Z,28.08
2019-04-25T14:45:44.328Z,27.95
2019-04-25T14:48:10.821Z,28.21
2019-04-25T14:50:39.743Z,29.03
2019-04-25T14:53:08.630Z,29.87
2019-04-25T14:55:55.462Z,29.51
2019-04-25T14:58:26.186Z,29.16
2019-04-25T15:00:55.431Z,28.97
2019-04-25T15:03:24.461Z,29.29
2019-04-25T15:05:53.582Z,28.77
2019-04-25T15:08:22.662Z,28.77
2019-04-25T15:10:51.741Z,28.58
2019-04-25T15:13:21.029Z,27.64
2019-04-25T15:15:49.915Z,28.00
2019-04-25T15:18:18.950Z,28.45
2019-04-25T15:20:47.950Z,28.63
2019-04-25T15:23:17.036Z,28.87
2019-04-25T15:25:45.981Z,28.64
2019-04-25T15:28:15.104Z,28.03
2019-04-25T15:30:44.180Z,27.65
2019-04-25T15:33:13.263Z,27.34
2019-04-25T15:35:55.790Z,27.21
2019-04-25T15:38:41.061Z,27.31
2019-04-25T15:41:20.787Z,27.44
2019-04-25T15:44:06.502Z,27.75
2019-04-25T15:46:37.181Z,27.99
2019-04-25T15:49:06.543Z,27.84
2019-04-25T15:51:35.662Z,27.69
2019-04-25T15:54:05.232Z,27.84
2019-04-25T15:56:34.676Z,27.82
2019-04-25T15:59:03.910Z,28.04
2019-04-25T16:01:33.021Z,28.28
2019-04-25T16:04:01.993Z,28.36
2019-04-25T16:06:31.923Z,28.05
2019-04-25T16:09:01.020Z,27.64
2019-04-25T16:11:30.207Z,27.42
2019-04-25T16:13:59.190Z,27.45
2019-04-25T16:16:28.334Z,27.42
2019-04-25T16:18:57.461Z,27.48
2019-04-25T16:21:26.762Z,27.03
2019-04-25T16:23:56.901Z,26.88
2019-04-25T16:26:26.976Z,27.08
2019-04-25T16:28:56.942Z,27.01
2019-04-25T16:31:28.953Z,26.88
2019-04-25T16:33:57.502Z,26.54
2019-04-25T16:36:26.582Z,26.56
2019-04-25T16:38:55.582Z,26.52
2019-04-25T16:41:24.782Z,26.38
2019-04-25T16:44:01.023Z,26.19
2019-04-25T16:46:30.735Z,26.10
2019-04-25T16:48:59.740Z,25.92
2019-04-25T16:51:29.293Z,25.97
2019-04-25T16:53:58.383Z,25.89
2019-04-25T16:56:28.268Z,26.04
2019-04-25T16:58:57.920Z,26.00
2019-04-25T17:01:27.226Z,25.75
2019-04-25T17:03:56.590Z,25.54
2019-04-25T17:06:25.862Z,25.30
2019-04-25T17:08:54.942Z,25.16
2019-04-25T17:11:23.983Z,24.88
2019-04-25T17:14:10.866Z,24.93
2019-04-25T17:16:50.583Z,24.97
2019-04-25T17:19:37.342Z,24.97
2019-04-25T17:22:06.541Z,24.76
2019-04-25T17:24:35.421Z,24.50
2019-04-25T17:27:04.860Z,24.38
2019-04-25T17:29:34.628Z,24.40
2019-04-25T17:32:05.384Z,24.47
2019-04-25T17:34:36.625Z,24.38
2019-04-25T17:37:10.145Z,24.29
2019-04-25T17:39:40.799Z,24.15
2019-04-25T17:42:09.942Z,24.12
2019-04-25T17:44:39.032Z,24.10
2019-04-25T17:47:07.992Z,23.99
2019-04-25T17:49:36.993Z,23.89
2019-04-25T17:52:06.141Z,23.88
2019-04-25T17:54:35.229Z,23.88
2019-04-25T17:57:04.594Z,23.69
2019-04-25T17:59:34.716Z,23.59
2019-04-25T18:02:04.285Z,23.42
2019-04-25T18:04:34.166Z,23.30
2019-04-25T18:07:03.631Z,23.14
2019-04-25T18:09:32.741Z,23.07
2019-04-25T18:12:01.830Z,22.94
2019-04-25T18:14:30.821Z,22.81
2019-04-25T18:16:59.902Z,22.77
2019-04-25T18:19:34.029Z,22.65
2019-04-25T18:22:11.499Z,22.56
2019-04-25T18:24:57.269Z,22.50
2019-04-25T18:27:27.901Z,22.41
2019-04-25T18:29:56.951Z,22.31
2019-04-25T18:32:27.506Z,22.24
2019-04-25T18:35:10.422Z,22.30
2019-04-25T18:37:52.663Z,22.22
2019-04-25T18:40:29.381Z,22.17
2019-04-25T18:43:14.942Z,22.12
2019-04-25T18:45:46.481Z,22.07
2019-04-25T18:48:15.640Z,21.99
2019-04-25T18:50:45.462Z,21.88
2019-04-25T18:53:19.261Z,21.82
2019-04-25T18:55:56.061Z,21.75
2019-04-25T18:58:29.544Z,21.65
2019-04-25T19:01:00.342Z,21.65
2019-04-25T19:03:39.701Z,21.59
2019-04-25T19:06:10.358Z,21.51
2019-04-25T19:08:39.679Z,21.51
2019-04-25T19:11:08.872Z,21.47
2019-04-25T19:13:38.800Z,21.48
2019-04-25T19:16:08.741Z,21.45
2019-04-25T19:18:38.814Z,21.43
2019-04-25T19:21:10.143Z,21.37
2019-04-25T19:23:39.391Z,21.35
2019-04-25T19:26:09.621Z,21.33
2019-04-25T19:28:39.977Z,21.25
2019-04-25T19:31:09.461Z,21.17
2019-04-25T19:33:48.349Z,21.13
2019-04-25T19:36:29.365Z,21.08
2019-04-25T19:39:11.549Z,21.02
2019-04-25T19:41:43.792Z,20.96
2019-04-25T19:44:15.478Z,20.91
2019-04-25T19:46:47.929Z,20.88
2019-04-25T19:49:29.866Z,20.84
2019-04-25T19:52:06.813Z,20.82
2019-04-25T19:54:40.899Z,20.79
2019-04-25T19:57:19.108Z,20.79
2019-04-25T19:59:57.864Z,20.74
2019-04-25T20:02:38.880Z,20.74
2019-04-25T20:05:24.078Z,20.68
2019-04-25T20:07:55.369Z,20.66
2019-04-25T20:10:29.776Z,20.63
2019-04-25T20:12:59.925Z,20.62
2019-04-25T20:15:29.777Z,20.61
2019-04-25T20:17:59.181Z,20.56
2019-04-25T20:20:28.077Z,20.50
2019-04-25T20:22:56.956Z,20.46
2019-04-25T20:25:25.839Z,20.43
2019-04-25T20:27:55.390Z,20.39
2019-04-25T20:30:24.477Z,20.42
2019-04-25T20:32:53.599Z,20.38
2019-04-25T20:35:22.587Z,20.29
2019-04-25T20:37:51.470Z,20.23
2019-04-25T20:40:20.541Z,20.18
2019-04-25T20:42:49.876Z,20.21
2019-04-25T20:45:19.208Z,20.14
2019-04-25T20:47:48.309Z,20.15
2019-04-25T20:50:17.400Z,20.14
2019-04-25T20:52:47.316Z,20.12
2019-04-25T20:55:16.511Z,20.05
2019-04-25T20:57:45.421Z,20.07
2019-04-25T21:00:18.221Z,20.01
2019-04-25T21:02:48.326Z,19.85
2019-04-25T21:05:17.391Z,19.76
2019-04-25T21:07:46.351Z,19.83
2019-04-25T21:10:15.261Z,19.79
2019-04-25T21:12:44.268Z,19.95
2019-04-25T21:15:26.510Z,19.90
2019-04-25T21:18:06.100Z,19.83
2019-04-25T21:20:35.100Z,19.74
2019-04-25T21:23:04.070Z,19.60
2019-04-25T21:25:33.112Z,19.57
2019-04-25T21:28:02.061Z,19.55
2019-04-25T21:30:31.182Z,19.43
2019-04-25T21:33:00.235Z,19.35
2019-04-25T21:35:29.423Z,19.29
2019-04-25T21:37:59.561Z,19.23
2019-04-25T21:40:39.499Z,19.16
2019-04-25T21:43:13.501Z,19.07
2019-04-25T21:45:42.830Z,18.98
2019-04-25T21:48:12.182Z,18.92
2019-04-25T21:50:41.421Z,18.88
2019-04-25T21:53:10.670Z,18.74
2019-04-25T21:55:39.790Z,18.67
2019-04-25T21:58:09.182Z,18.59
2019-04-25T22:00:52.503Z,18.52
2019-04-25T22:03:24.382Z,18.42
2019-04-25T22:05:54.166Z,18.41
2019-04-25T22:08:24.230Z,18.35
2019-04-25T22:10:53.668Z,18.28
2019-04-25T22:13:22.621Z,18.21
2019-04-25T22:15:51.902Z,18.05
2019-04-25T22:18:21.260Z,18.14
2019-04-25T22:20:50.358Z,18.05
2019-04-25T22:23:19.717Z,18.09
2019-04-25T22:25:49.030Z,18.02
2019-04-25T22:28:18.462Z,18.01
2019-04-25T22:30:49.261Z,17.90
2019-04-25T22:33:19.951Z,18.01
2019-04-25T22:35:53.621Z,17.98
2019-04-25T22:38:22.125Z,17.99
2019-04-25T22:40:51.061Z,17.93
2019-04-25T22:43:21.301Z,17.89
2019-04-25T22:45:50.621Z,17.87
2019-04-25T22:48:21.180Z,17.89
2019-04-25T22:50:50.422Z,17.82
2019-04-25T22:53:22.877Z,17.75
2019-04-25T22:55:50.101Z,17.76
2019-04-25T22:58:19.180Z,17.73
2019-04-25T23:00:48.300Z,17.82
2019-04-25T23:03:18.903Z,17.77
2019-04-25T23:05:49.505Z,17.76
2019-04-25T23:08:18.744Z,17.70
2019-04-25T23:10:47.822Z,17.62
2019-04-25T23:13:16.865Z,17.61
2019-04-25T23:15:45.821Z,17.62
2019-04-25T23:18:14.983Z,17.60
2019-04-25T23:20:43.940Z,17.63
2019-04-25T23:23:13.797Z,17.61
2019-04-25T23:26:00.878Z,17.57
2019-04-25T23:28:31.903Z,17.60
2019-04-25T23:31:20.180Z,17.59
2019-04-25T23:33:49.302Z,17.65
2019-04-25T23:36:18.663Z,17.65
2019-04-25T23:38:47.824Z,17.58
2019-04-25T23:41:17.101Z,17.48
2019-04-25T23:43:46.261Z,17.53
2019-04-25T23:46:16.281Z,17.50
2019-04-25T23:48:45.221Z,17.53
2019-04-25T23:51:14.359Z,17.49
2019-04-25T23:53:44.381Z,17.55
2019-04-25T23:56:13.384Z,17.59
2019-04-25T23:58:42.581Z,17.60
